Time;durP1;ratioP1;P1;durP2;ratioP2;P2;SDS_P1;SDS_P2;PMS_P1;PMS_P2;Temp;Humidity;BMP_temperature;BMP_pressure;BME280_temperature;BME280_humidity;BME280_pressure;Samples;Min_cycle;Max_cycle;Signal;HPM_P1;HPM_P2
2022/01/14 00:01:38;;;;;;;71.53;28.70;;;1.30;99.90;;;;;;4969759;28;20027;-66
2022/01/14 00:04:05;;;;;;;75.38;28.90;;;1.30;99.90;;;;;;4961849;28;20098;-65
2022/01/14 00:06:31;;;;;;;78.93;31.17;;;1.30;99.90;;;;;;4962712;28;20023;-65
2022/01/14 00:09:05;;;;;;;71.93;28.73;;;1.20;99.90;;;;;;4972163;28;20474;-65
2022/01/14 00:11:32;;;;;;;75.00;30.88;;;1.20;99.90;;;;;;4968430;28;20030;-65
2022/01/14 00:16:29;;;;;;;;;;;1.20;99.90;;;;;;4967689;28;20081;-65
2022/01/14 00:18:55;;;;;;;60.42;24.73;;;1.20;99.90;;;;;;4966869;28;19949;-66
2022/01/14 00:21:20;;;;;;;65.97;28.48;;;1.20;99.90;;;;;;4971212;28;20349;-65
2022/01/14 00:23:51;;;;;;;66.70;27.67;;;1.20;99.90;;;;;;4965882;28;20044;-65
2022/01/14 00:34:13;;;;;;;60.05;25.90;;;1.10;99.90;;;;;;4975816;28;20117;-64
2022/01/14 00:36:39;;;;;;;60.35;26.40;;;1.10;99.90;;;;;;4973671;28;20388;-65
2022/01/14 00:39:09;;;;;;;67.00;27.63;;;1.10;99.90;;;;;;4963888;28;20027;-65
2022/01/14 00:41:35;;;;;;;71.68;29.85;;;1.10;99.90;;;;;;4961368;28;20391;-65
2022/01/14 00:44:10;;;;;;;66.18;25.95;;;1.10;99.90;;;;;;4962497;28;20352;-65
2022/01/14 00:46:42;;;;;;;64.15;26.08;;;1.00;99.90;;;;;;4968344;28;20395;-64
2022/01/14 00:49:08;;;;;;;60.58;26.55;;;1.00;99.90;;;;;;4966452;28;20027;-65
2022/01/14 00:51:35;;;;;;;65.10;26.15;;;1.00;99.90;;;;;;4966686;28;20032;-65
2022/01/14 00:54:01;;;;;;;63.40;26.70;;;1.00;99.90;;;;;;4971554;28;20141;-64
2022/01/14 00:56:32;;;;;;;57.38;25.80;;;1.00;99.90;;;;;;4968334;28;20513;-64
2022/01/14 00:59:17;;;;;;;;;;;1.00;99.90;;;;;;4971820;28;20048;-65
2022/01/14 01:01:44;;;;;;;63.38;27.15;;;0.90;99.90;;;;;;4968980;28;19917;-64
2022/01/14 01:04:18;;;;;;;65.18;25.42;;;0.90;99.90;;;;;;4969748;28;20390;-64
2022/01/14 01:06:44;;;;;;;60.85;25.45;;;0.90;99.90;;;;;;4969931;28;20135;-65
2022/01/14 01:09:12;;;;;;;59.55;26.73;;;0.80;99.90;;;;;;4968247;28;20058;-65
2022/01/14 01:11:45;;;;;;;61.92;24.98;;;0.80;99.90;;;;;;4974751;28;20043;-65
2022/01/14 01:14:16;;;;;;;66.75;27.27;;;0.80;99.90;;;;;;4961958;28;20027;-65
2022/01/14 01:16:42;;;;;;;66.28;26.48;;;0.80;99.90;;;;;;4969699;28;20174;-65
2022/01/14 01:19:08;;;;;;;55.35;24.73;;;0.80;99.90;;;;;;4963480;28;20118;-65
2022/01/14 01:21:34;;;;;;;58.88;25.17;;;0.80;99.90;;;;;;4966820;28;20033;-65
2022/01/14 01:24:00;;;;;;;61.80;26.17;;;0.70;99.90;;;;;;4973532;28;20486;-65
2022/01/14 01:26:31;;;;;;;59.25;26.63;;;0.70;99.90;;;;;;4965356;28;20087;-64
2022/01/14 01:31:35;;;;;;;64.70;29.08;;;0.70;99.90;;;;;;4959917;28;20205;-66
2022/01/14 01:34:13;;;;;;;62.70;25.88;;;0.70;99.90;;;;;;4960564;28;20571;-64
2022/01/14 01:36:41;;;;;;;67.50;27.67;;;0.70;99.90;;;;;;4967966;28;20032;-65
2022/01/14 01:39:10;;;;;;;59.22;27.52;;;0.70;99.90;;;;;;4981017;28;20031;-65
2022/01/14 01:41:37;;;;;;;67.13;26.08;;;0.70;99.90;;;;;;4971050;28;20039;-65
2022/01/14 01:44:08;;;;;;;57.65;25.75;;;0.70;99.90;;;;;;4962367;28;20031;-65
2022/01/14 01:46:38;;;;;;;59.60;26.02;;;0.70;99.90;;;;;;4963636;28;20023;-64
2022/01/14 01:49:06;;;;;;;63.88;25.83;;;0.70;99.90;;;;;;4972588;28;20388;-65
2022/01/14 01:51:31;;;;;;;66.35;27.05;;;0.70;99.90;;;;;;4971949;28;20030;-65
2022/01/14 01:53:57;;;;;;;64.22;26.88;;;0.70;99.90;;;;;;4968403;28;20034;-64
2022/01/14 01:56:23;;;;;;;69.30;28.98;;;0.70;99.90;;;;;;4966496;28;20055;-65
2022/01/14 01:58:49;;;;;;;62.08;26.80;;;0.70;99.90;;;;;;4965569;28;20085;-65
2022/01/14 02:01:14;;;;;;;60.65;26.67;;;0.70;99.90;;;;;;4966769;28;20023;-65
2022/01/14 02:03:40;;;;;;;60.40;26.52;;;0.70;99.90;;;;;;4976982;28;20086;-65
2022/01/14 02:06:06;;;;;;;60.35;25.27;;;0.70;99.90;;;;;;4960331;28;20451;-64
2022/01/14 02:08:32;;;;;;;59.00;26.63;;;0.60;99.90;;;;;;4970042;28;20124;-65
2022/01/14 02:10:59;;;;;;;60.20;24.77;;;0.60;99.90;;;;;;4966297;28;20799;-64
2022/01/14 02:13:25;;;;;;;57.67;24.95;;;0.60;99.90;;;;;;4967189;28;20046;-65
2022/01/14 02:16:15;;;;;;;62.67;27.05;;;0.60;99.90;;;;;;4968089;28;20039;-65
2022/01/14 02:19:26;;;;;;;65.03;25.70;;;0.70;99.90;;;;;;4975738;28;20058;-64
2022/01/14 02:26:53;;;;;;;63.97;28.85;;;0.70;99.90;;;;;;4974417;28;20437;-64
2022/01/14 02:29:20;;;;;;;68.65;26.85;;;0.70;99.90;;;;;;4960980;28;20122;-65
2022/01/14 02:31:46;;;;;;;72.00;26.25;;;0.60;99.90;;;;;;4969150;28;20035;-65
2022/01/14 02:34:14;;;;;;;63.95;27.67;;;0.60;99.90;;;;;;4969011;28;20554;-65
2022/01/14 02:36:41;;;;;;;68.97;28.58;;;0.60;99.90;;;;;;4962217;28;20445;-65
2022/01/14 02:39:08;;;;;;;63.50;29.80;;;0.60;99.90;;;;;;4963114;28;20912;-65
2022/01/14 02:41:35;;;;;;;57.83;26.38;;;0.60;99.90;;;;;;4970765;28;20034;-65
2022/01/14 02:44:10;;;;;;;67.68;29.67;;;0.60;99.90;;;;;;4976618;28;20030;-65
2022/01/14 02:46:41;;;;;;;75.25;29.20;;;0.60;99.90;;;;;;4964343;28;20057;-65
2022/01/14 02:49:07;;;;;;;74.95;29.25;;;0.60;99.90;;;;;;4964405;28;20027;-65
2022/01/14 02:51:33;;;;;;;77.22;27.98;;;0.60;99.90;;;;;;4964216;28;20101;-65
2022/01/14 02:54:11;;;;;;;69.20;27.63;;;0.60;99.90;;;;;;4969910;28;20121;-65
2022/01/14 02:56:38;;;;;;;66.43;28.45;;;0.60;99.90;;;;;;4973164;28;20118;-65
2022/01/14 02:59:07;;;;;;;68.63;28.98;;;0.60;99.90;;;;;;4971145;28;20513;-65
2022/01/14 03:01:33;;;;;;;57.42;24.90;;;0.60;99.90;;;;;;4962949;28;20054;-65
2022/01/14 03:04:01;;;;;;;67.18;26.35;;;0.60;99.90;;;;;;4964535;28;20027;-65
2022/01/14 03:06:28;;;;;;;70.10;27.08;;;0.60;99.90;;;;;;4964795;28;20028;-65
2022/01/14 03:08:54;;;;;;;69.82;28.27;;;0.60;99.90;;;;;;4962963;28;20080;-65
2022/01/14 03:11:29;;;;;;;74.40;27.65;;;0.60;99.90;;;;;;4960787;28;20142;-65
2022/01/14 03:13:56;;;;;;;68.75;26.65;;;0.60;99.90;;;;;;4967635;28;20109;-65
2022/01/14 03:16:23;;;;;;;69.95;29.10;;;0.60;99.90;;;;;;4964321;28;20035;-64
2022/01/14 03:18:52;;;;;;;74.20;28.30;;;0.60;99.90;;;;;;4970728;28;20038;-65
2022/01/14 03:21:26;;;;;;;70.40;27.50;;;0.50;99.90;;;;;;4972672;28;20025;-66
2022/01/14 03:24:03;;;;;;;66.35;25.92;;;0.60;99.90;;;;;;4972706;28;20547;-65
2022/01/14 03:26:29;;;;;;;69.75;28.27;;;0.50;99.90;;;;;;4964440;28;20439;-65
2022/01/14 03:28:55;;;;;;;66.82;28.20;;;0.50;99.90;;;;;;4960284;28;20118;-66
2022/01/14 03:31:21;;;;;;;73.78;29.10;;;0.50;99.90;;;;;;4971568;28;20110;-65
2022/01/14 03:33:47;;;;;;;63.47;27.65;;;0.60;99.90;;;;;;4965259;28;20082;-65
2022/01/14 03:36:13;;;;;;;74.72;28.20;;;0.50;99.90;;;;;;4967864;28;20526;-65
2022/01/14 03:38:39;;;;;;;78.03;28.65;;;0.60;99.90;;;;;;4969782;28;20077;-66
2022/01/14 03:41:05;;;;;;;80.40;28.35;;;0.60;99.90;;;;;;4961612;28;20027;-65
2022/01/14 03:43:32;;;;;;;78.47;28.55;;;0.60;99.90;;;;;;4961438;28;20046;-65
2022/01/14 03:45:58;;;;;;;85.10;29.05;;;0.50;99.90;;;;;;4977091;28;20063;-65
2022/01/14 03:48:24;;;;;;;78.43;29.42;;;0.50;99.90;;;;;;4971236;28;20054;-65
2022/01/14 03:50:50;;;;;;;80.18;29.88;;;0.50;99.90;;;;;;4969889;28;20026;-64
2022/01/14 03:53:16;;;;;;;98.47;31.25;;;0.60;99.90;;;;;;4964897;28;20074;-65
2022/01/14 03:55:43;;;;;;;91.32;32.97;;;0.50;99.90;;;;;;4967069;28;20074;-64
2022/01/14 03:58:09;;;;;;;86.72;31.73;;;0.50;99.90;;;;;;4968100;28;20095;-65
2022/01/14 04:00:35;;;;;;;91.20;29.83;;;0.60;99.90;;;;;;4974101;28;20113;-66
2022/01/14 04:03:03;;;;;;;93.78;33.55;;;0.60;99.90;;;;;;4968513;28;20029;-64
2022/01/14 04:05:28;;;;;;;82.82;31.40;;;0.50;99.90;;;;;;4967440;28;20051;-64
2022/01/14 04:07:54;;;;;;;89.20;30.70;;;0.60;99.90;;;;;;4961077;28;20069;-64
2022/01/14 04:10:21;;;;;;;90.57;31.33;;;0.50;99.90;;;;;;4969914;28;20059;-65
2022/01/14 04:17:59;;;;;;;87.25;32.03;;;0.50;99.90;;;;;;4961928;28;20122;-65
2022/01/14 04:20:26;;;;;;;78.72;30.20;;;0.50;99.90;;;;;;4969010;28;20037;-65
2022/01/14 04:22:51;;;;;;;90.95;31.85;;;0.50;99.90;;;;;;4970747;28;20023;-65
2022/01/14 04:25:17;;;;;;;94.38;33.83;;;0.50;99.90;;;;;;4970683;28;20027;-64
2022/01/14 04:27:43;;;;;;;88.57;30.23;;;0.50;99.90;;;;;;4980326;28;20027;-65
2022/01/14 04:30:10;;;;;;;86.85;31.52;;;0.50;99.90;;;;;;4973930;28;20054;-66
2022/01/14 04:32:35;;;;;;;101.28;32.10;;;0.50;99.90;;;;;;4970004;28;20047;-64
2022/01/14 04:35:01;;;;;;;96.03;31.42;;;0.50;99.90;;;;;;4980676;28;20038;-65
2022/01/14 04:37:27;;;;;;;95.85;30.67;;;0.40;99.90;;;;;;4966693;28;20055;-65
2022/01/14 04:39:52;;;;;;;86.68;31.13;;;0.40;99.90;;;;;;4969111;28;20053;-65
2022/01/14 04:42:18;;;;;;;96.75;33.88;;;0.40;99.90;;;;;;4973573;28;20034;-65
2022/01/14 04:44:44;;;;;;;85.85;31.27;;;0.40;99.90;;;;;;4971045;28;20034;-64
2022/01/14 04:47:18;;;;;;;91.93;30.38;;;0.40;99.90;;;;;;4969286;28;20091;-65
2022/01/14 04:49:44;;;;;;;85.97;31.27;;;0.40;99.90;;;;;;4966960;28;20027;-65
2022/01/14 04:52:10;;;;;;;82.20;30.63;;;0.40;99.90;;;;;;4965940;28;20084;-65
2022/01/14 04:54:36;;;;;;;82.32;30.38;;;0.50;99.90;;;;;;4970076;28;20058;-65
2022/01/14 04:57:02;;;;;;;74.13;28.88;;;0.50;99.90;;;;;;4971629;28;20110;-64
2022/01/14 04:59:28;;;;;;;87.97;31.73;;;0.50;99.90;;;;;;4973111;28;20504;-65
2022/01/14 05:01:56;;;;;;;80.05;29.55;;;0.50;99.90;;;;;;4974177;28;20118;-65
2022/01/14 05:04:22;;;;;;;80.85;30.10;;;0.60;99.90;;;;;;4975663;28;20078;-65
2022/01/14 05:06:55;;;;;;;80.40;29.15;;;0.60;99.90;;;;;;4973244;28;20031;-65
2022/01/14 05:09:28;;;;;;;76.70;28.00;;;0.60;99.90;;;;;;4966498;28;20058;-65
2022/01/14 05:11:58;;;;;;;87.63;29.25;;;0.60;99.90;;;;;;4968058;28;20023;-64
2022/01/14 05:14:24;;;;;;;76.78;29.13;;;0.60;99.90;;;;;;4969132;28;20036;-65
2022/01/14 05:16:50;;;;;;;73.65;28.65;;;0.60;99.90;;;;;;4958251;28;20046;-65
2022/01/14 05:19:15;;;;;;;79.03;28.67;;;0.60;99.90;;;;;;4971319;28;20039;-65
2022/01/14 05:21:41;;;;;;;74.65;29.25;;;0.60;99.90;;;;;;4972795;28;20611;-64
2022/01/14 05:24:07;;;;;;;76.88;29.60;;;0.60;99.90;;;;;;4969746;28;20096;-64
2022/01/14 05:26:33;;;;;;;83.68;30.55;;;0.60;99.90;;;;;;4980074;28;20038;-65
2022/01/14 05:28:58;;;;;;;73.35;28.60;;;0.60;99.90;;;;;;4965768;28;20647;-65
2022/01/14 05:31:50;;;;;;;81.05;30.10;;;0.50;99.90;;;;;;4974629;28;20035;-64
2022/01/14 05:34:17;;;;;;;72.53;28.48;;;0.50;99.90;;;;;;4965489;28;20502;-65
2022/01/14 05:36:43;;;;;;;75.65;29.13;;;0.50;99.90;;;;;;4966970;28;20053;-65
2022/01/14 05:39:10;;;;;;;76.68;28.25;;;0.50;99.90;;;;;;4977695;28;20433;-65
2022/01/14 05:41:36;;;;;;;75.93;28.55;;;0.40;99.90;;;;;;4965726;28;20067;-65
2022/01/14 05:44:04;;;;;;;70.05;27.77;;;0.40;99.90;;;;;;4967164;28;20387;-66
2022/01/14 05:46:30;;;;;;;76.35;28.27;;;0.40;99.90;;;;;;4964603;28;20082;-67
2022/01/14 05:48:55;;;;;;;81.70;29.35;;;0.40;99.90;;;;;;4964134;28;20114;-65
2022/01/14 05:51:21;;;;;;;79.93;27.95;;;0.40;99.90;;;;;;4963473;28;20387;-64
2022/01/14 05:53:47;;;;;;;83.75;30.38;;;0.30;99.90;;;;;;4964538;28;20721;-64
2022/01/14 05:56:12;;;;;;;75.43;29.45;;;0.30;99.90;;;;;;4962374;28;20034;-65
2022/01/14 05:58:38;;;;;;;70.35;28.38;;;0.30;99.90;;;;;;4964429;28;20039;-64
2022/01/14 06:01:04;;;;;;;80.72;30.05;;;0.30;99.90;;;;;;4961229;28;20025;-58
2022/01/14 06:03:29;;;;;;;77.68;28.60;;;0.30;99.90;;;;;;4976629;28;20122;-59
2022/01/14 06:05:55;;;;;;;75.03;28.75;;;0.30;99.90;;;;;;4974175;28;20086;-59
2022/01/14 06:08:21;;;;;;;69.88;26.75;;;0.30;99.90;;;;;;4968623;28;20097;-58
2022/01/14 06:10:46;;;;;;;72.78;27.90;;;0.30;99.90;;;;;;4973802;28;20031;-58
2022/01/14 06:13:12;;;;;;;82.93;29.77;;;0.40;99.90;;;;;;4963806;28;20038;-59
2022/01/14 06:15:38;;;;;;;70.15;27.80;;;0.30;99.90;;;;;;4965648;28;20044;-59
2022/01/14 06:18:03;;;;;;;75.60;29.08;;;0.30;99.90;;;;;;4969240;28;20022;-60
2022/01/14 06:20:29;;;;;;;79.07;28.23;;;0.30;99.90;;;;;;4966228;28;20399;-59
2022/01/14 06:22:54;;;;;;;77.03;28.63;;;0.30;99.90;;;;;;4965222;28;20033;-59
2022/01/14 06:25:20;;;;;;;88.05;30.70;;;0.30;99.90;;;;;;4964407;28;20034;-59
2022/01/14 06:27:46;;;;;;;74.60;27.67;;;0.30;99.90;;;;;;4965767;28;20038;-59
2022/01/14 06:30:12;;;;;;;77.47;27.90;;;0.30;99.90;;;;;;4963945;28;20023;-60
2022/01/14 06:32:41;;;;;;;76.35;28.33;;;0.30;99.90;;;;;;4977620;28;20031;-58
2022/01/14 06:35:14;;;;;;;84.80;28.27;;;0.30;99.90;;;;;;4968416;28;20509;-58
2022/01/14 06:37:41;;;;;;;76.00;28.75;;;0.20;99.90;;;;;;4962868;28;20454;-59
2022/01/14 06:40:08;;;;;;;81.57;27.38;;;0.20;99.90;;;;;;4958824;28;20066;-59
2022/01/14 06:42:34;;;;;;;84.22;28.85;;;0.20;99.90;;;;;;4977157;28;20054;-58
2022/01/14 06:45:01;;;;;;;78.30;27.77;;;0.20;99.90;;;;;;4972315;28;20034;-58
2022/01/14 06:47:26;;;;;;;78.22;29.13;;;0.20;99.90;;;;;;4966352;28;20418;-59
2022/01/14 06:49:52;;;;;;;79.82;27.63;;;0.20;99.90;;;;;;4965035;28;20035;-59
2022/01/14 06:52:18;;;;;;;87.22;28.65;;;0.20;99.90;;;;;;4959479;28;20538;-59
2022/01/14 06:54:44;;;;;;;71.28;27.02;;;0.20;99.90;;;;;;4963732;28;20113;-58
2022/01/14 06:57:10;;;;;;;75.63;26.85;;;0.20;99.90;;;;;;4965650;28;20435;-61
2022/01/14 06:59:36;;;;;;;92.97;31.45;;;0.20;99.90;;;;;;4960892;28;20027;-59
2022/01/14 07:02:02;;;;;;;80.35;28.13;;;0.20;99.90;;;;;;4961049;28;20113;-59
2022/01/14 07:04:29;;;;;;;82.95;27.55;;;0.20;99.90;;;;;;4962868;28;20034;-58
2022/01/14 07:06:55;;;;;;;80.50;27.42;;;0.20;99.90;;;;;;4967316;28;20034;-60
2022/01/14 07:09:20;;;;;;;80.00;27.85;;;0.20;99.90;;;;;;4976955;28;20027;-58
2022/01/14 07:11:52;;;;;;;82.90;27.60;;;0.20;99.90;;;;;;4971244;28;20506;-59
2022/01/14 07:14:19;;;;;;;71.43;25.88;;;0.20;99.90;;;;;;4969000;28;20034;-59
2022/01/14 07:16:45;;;;;;;69.88;26.05;;;0.20;99.90;;;;;;4966435;28;20045;-59
2022/01/14 07:19:12;;;;;;;74.78;26.10;;;0.20;99.90;;;;;;4966960;28;20039;-60
2022/01/14 07:21:39;;;;;;;70.07;27.63;;;0.20;99.90;;;;;;4971606;28;20411;-61
2022/01/14 07:24:05;;;;;;;71.90;24.48;;;0.10;99.90;;;;;;4973507;28;20026;-63
2022/01/14 07:26:31;;;;;;;62.35;23.52;;;0.20;99.90;;;;;;4958608;28;20081;-60
2022/01/14 07:28:57;;;;;;;70.07;25.10;;;0.20;99.90;;;;;;4967859;28;20031;-59
2022/01/14 07:31:23;;;;;;;62.88;23.40;;;0.20;99.90;;;;;;4964138;28;20034;-58
2022/01/14 07:33:48;;;;;;;60.67;22.92;;;0.10;99.90;;;;;;4965048;28;20057;-59
2022/01/14 07:36:14;;;;;;;63.15;23.38;;;0.20;99.90;;;;;;4964708;28;20038;-59
2022/01/14 07:38:39;;;;;;;61.10;23.83;;;0.10;99.90;;;;;;4970139;28;20026;-58
2022/01/14 07:41:06;;;;;;;67.28;25.02;;;0.20;99.90;;;;;;4964268;28;20032;-59
2022/01/14 07:43:32;;;;;;;68.50;25.00;;;0.20;99.90;;;;;;4960136;28;20027;-59
2022/01/14 07:45:58;;;;;;;61.17;24.45;;;0.20;99.90;;;;;;4974920;28;20105;-59
2022/01/14 07:48:24;;;;;;;74.70;27.42;;;0.20;99.90;;;;;;4970649;28;20041;-59
2022/01/14 07:50:50;;;;;;;79.50;28.60;;;0.20;99.90;;;;;;4971243;28;20381;-58
2022/01/14 07:53:15;;;;;;;72.80;27.35;;;0.20;99.90;;;;;;4964982;28;20071;-58
2022/01/14 07:55:41;;;;;;;68.30;25.70;;;0.20;99.90;;;;;;4962805;28;20407;-59
2022/01/14 07:58:07;;;;;;;66.30;24.73;;;0.20;99.90;;;;;;4970212;28;20032;-58
2022/01/14 08:00:35;;;;;;;63.35;24.20;;;0.30;99.90;;;;;;4969730;28;20088;-58
2022/01/14 08:03:02;;;;;;;65.38;24.30;;;0.30;99.90;;;;;;4972064;28;20031;-59
2022/01/14 08:05:28;;;;;;;69.97;25.17;;;0.30;99.90;;;;;;4963777;28;20027;-59
2022/01/14 08:07:56;;;;;;;75.55;25.08;;;0.30;99.90;;;;;;4968424;28;20042;-59
2022/01/14 08:10:22;;;;;;;68.90;26.15;;;0.30;99.90;;;;;;4973385;28;20035;-59
2022/01/14 08:12:48;;;;;;;77.03;27.80;;;0.30;99.90;;;;;;4979703;28;20033;-59
2022/01/14 08:15:14;;;;;;;69.57;26.10;;;0.40;99.90;;;;;;4972160;28;20033;-59
2022/01/14 08:17:40;;;;;;;86.18;29.10;;;0.40;99.90;;;;;;4974169;28;20043;-60
2022/01/14 08:20:08;;;;;;;70.97;24.75;;;0.40;99.90;;;;;;4969103;28;20368;-59
2022/01/14 08:22:34;;;;;;;75.13;27.88;;;0.40;99.90;;;;;;4968442;28;20024;-58
2022/01/14 08:25:01;;;;;;;70.38;26.55;;;0.50;99.90;;;;;;4976590;28;20034;-60
2022/01/14 08:27:27;;;;;;;72.00;25.88;;;0.50;99.90;;;;;;4975736;28;20025;-62
2022/01/14 08:29:53;;;;;;;76.40;26.70;;;0.50;99.90;;;;;;4971937;28;20030;-61
2022/01/14 08:32:19;;;;;;;72.85;26.20;;;0.50;99.90;;;;;;4968038;28;20035;-62
2022/01/14 08:34:45;;;;;;;68.60;23.65;;;0.60;99.90;;;;;;4970476;28;20085;-59
2022/01/14 08:37:10;;;;;;;56.85;24.13;;;0.60;99.90;;;;;;4971186;28;20050;-58
2022/01/14 08:39:36;;;;;;;69.25;26.58;;;0.60;99.90;;;;;;4969333;28;20438;-58
2022/01/14 08:42:04;;;;;;;66.57;24.10;;;0.60;99.90;;;;;;4967042;28;20355;-59
2022/01/14 08:44:30;;;;;;;69.00;24.13;;;0.70;99.90;;;;;;4971997;28;20277;-59
2022/01/14 08:46:56;;;;;;;71.50;23.42;;;0.70;99.90;;;;;;4975290;28;20475;-59
2022/01/14 08:49:22;;;;;;;64.43;23.55;;;0.70;99.90;;;;;;4970279;28;20042;-59
2022/01/14 08:51:49;;;;;;;78.03;27.35;;;0.70;99.90;;;;;;4981761;28;20093;-58
2022/01/14 08:54:16;;;;;;;69.43;24.63;;;0.80;99.90;;;;;;4967191;28;20022;-59
2022/01/14 08:56:42;;;;;;;76.35;23.98;;;0.80;99.90;;;;;;4978192;28;20471;-59
2022/01/14 08:59:08;;;;;;;68.82;25.13;;;0.80;99.90;;;;;;4967242;28;20086;-59
2022/01/14 09:01:35;;;;;;;81.93;26.42;;;0.80;99.90;;;;;;4964876;28;20031;-58
2022/01/14 09:04:02;;;;;;;75.60;25.83;;;0.90;99.90;;;;;;4975593;28;20106;-59
2022/01/14 09:06:28;;;;;;;80.60;27.58;;;0.80;99.90;;;;;;4968093;28;20011;-59
2022/01/14 09:08:53;;;;;;;71.00;24.65;;;0.90;99.90;;;;;;4969530;28;20037;-59
2022/01/14 09:11:19;;;;;;;78.07;26.35;;;0.90;99.90;;;;;;4975493;28;20037;-59
2022/01/14 09:13:45;;;;;;;76.05;27.77;;;1.00;99.90;;;;;;4966903;28;20042;-59
2022/01/14 09:16:11;;;;;;;76.50;26.92;;;1.00;99.90;;;;;;4976750;28;20041;-61
2022/01/14 09:18:37;;;;;;;70.78;25.98;;;1.00;99.90;;;;;;4975385;28;20624;-58
2022/01/14 09:21:04;;;;;;;74.15;26.17;;;1.00;99.90;;;;;;4969268;28;20019;-58
2022/01/14 09:23:30;;;;;;;71.75;26.23;;;1.10;99.90;;;;;;4973751;28;20054;-58
2022/01/14 09:25:56;;;;;;;68.65;25.17;;;1.10;99.90;;;;;;4968601;28;20192;-59
2022/01/14 09:28:22;;;;;;;70.47;25.60;;;1.10;99.90;;;;;;4980617;28;20420;-59
2022/01/14 09:30:48;;;;;;;67.10;23.48;;;1.20;99.90;;;;;;4975469;28;20084;-58
2022/01/14 09:33:17;;;;;;;71.05;25.55;;;1.20;99.90;;;;;;4972446;28;20386;-58
2022/01/14 09:35:46;;;;;;;70.97;27.02;;;1.20;99.90;;;;;;4963853;28;20411;-59
2022/01/14 09:38:12;;;;;;;71.55;24.23;;;1.30;99.90;;;;;;4966269;28;20093;-58
2022/01/14 09:40:43;;;;;;;70.45;24.95;;;1.30;99.90;;;;;;4972535;28;20081;-58
2022/01/14 09:43:12;;;;;;;61.43;22.93;;;1.30;99.90;;;;;;4970562;28;20042;-58
2022/01/14 09:45:38;;;;;;;64.40;23.45;;;1.40;99.90;;;;;;4967321;28;20035;-58
2022/01/14 09:48:04;;;;;;;62.63;24.65;;;1.40;99.90;;;;;;4962840;28;20109;-58
2022/01/14 09:50:29;;;;;;;64.07;23.50;;;1.40;99.90;;;;;;4970536;28;20395;-59
2022/01/14 09:52:55;;;;;;;64.10;23.52;;;1.40;99.90;;;;;;4970988;28;20038;-58
2022/01/14 09:55:23;;;;;;;64.53;22.73;;;1.40;99.90;;;;;;4978004;28;20505;-58
2022/01/14 09:57:50;;;;;;;70.53;22.00;;;1.40;99.90;;;;;;4977529;28;20490;-58
2022/01/14 10:00:16;;;;;;;62.50;24.23;;;1.40;99.90;;;;;;4968775;28;20034;-59
2022/01/14 10:02:43;;;;;;;53.78;21.83;;;1.30;99.90;;;;;;4964785;28;20015;-58
2022/01/14 10:05:29;;;;;;;58.88;22.73;;;1.30;99.90;;;;;;4970845;28;20046;-58
2022/01/14 10:08:18;;;;;;;60.45;23.38;;;1.40;99.90;;;;;;4968667;28;20042;-58
2022/01/14 10:10:50;;;;;;;63.10;21.80;;;1.40;99.90;;;;;;4968384;28;20030;-58
2022/01/14 10:13:19;;;;;;;65.20;25.52;;;1.50;99.90;;;;;;4963907;28;20074;-58
2022/01/14 10:15:48;;;;;;;60.00;22.58;;;1.50;99.90;;;;;;4968245;28;20442;-58
2022/01/14 10:18:16;;;;;;;61.70;23.80;;;1.60;99.90;;;;;;4961842;28;20432;-58
2022/01/14 10:20:42;;;;;;;62.40;24.20;;;1.50;99.90;;;;;;4969444;28;20106;-59
2022/01/14 10:23:08;;;;;;;57.33;21.75;;;1.50;99.90;;;;;;4975615;28;20170;-58
2022/01/14 10:25:34;;;;;;;65.10;25.40;;;1.50;99.90;;;;;;4972582;28;20581;-59
2022/01/14 10:27:59;;;;;;;62.72;27.45;;;1.60;99.90;;;;;;4969828;28;20027;-58
2022/01/14 10:30:34;;;;;;;53.90;23.85;;;1.60;99.90;;;;;;4968344;28;20437;-58
2022/01/14 10:33:10;;;;;;;53.63;22.60;;;1.70;99.90;;;;;;4968402;28;20038;-59
2022/01/14 10:35:46;;;;;;;60.22;21.77;;;1.70;99.90;;;;;;4975142;28;20121;-59
2022/01/14 10:38:19;;;;;;;48.60;22.10;;;1.80;99.90;;;;;;4970162;28;20037;-58
2022/01/14 10:40:54;;;;;;;54.08;22.98;;;1.80;99.90;;;;;;4958243;28;20039;-58
2022/01/14 10:43:29;;;;;;;50.25;21.67;;;1.80;99.90;;;;;;4969422;28;20035;-59
2022/01/14 10:45:55;;;;;;;57.10;23.60;;;1.90;99.90;;;;;;4968465;28;20142;-58
2022/01/14 10:48:33;;;;;;;56.58;22.67;;;2.00;99.90;;;;;;4962994;28;20034;-59
2022/01/14 10:51:10;;;;;;;48.28;22.17;;;2.10;99.90;;;;;;4960525;28;20059;-58
2022/01/14 10:53:35;;;;;;;51.85;22.23;;;2.10;99.90;;;;;;4963265;28;20053;-58
2022/01/14 10:56:18;;;;;;;53.78;23.52;;;2.20;99.90;;;;;;4970583;28;20031;-61
2022/01/14 10:58:50;;;;;;;54.92;23.88;;;2.20;99.90;;;;;;4970027;28;20035;-61
2022/01/14 11:01:21;;;;;;;47.60;21.00;;;2.30;99.90;;;;;;4974001;28;20031;-59
2022/01/14 11:03:56;;;;;;;49.30;21.77;;;2.40;99.90;;;;;;4968155;28;20059;-61
2022/01/14 11:06:28;;;;;;;44.15;22.33;;;2.40;99.90;;;;;;4960290;28;20027;-61
2022/01/14 11:08:58;;;;;;;45.33;22.63;;;2.40;99.90;;;;;;4969390;28;20033;-61
2022/01/14 11:11:25;;;;;;;43.60;20.98;;;2.40;99.90;;;;;;4968892;28;20032;-59
2022/01/14 11:13:51;;;;;;;47.88;21.20;;;2.50;99.90;;;;;;4972760;28;20034;-61
2022/01/14 11:16:16;;;;;;;37.67;20.00;;;2.50;99.90;;;;;;4973204;28;20507;-61
2022/01/14 11:18:44;;;;;;;44.45;21.30;;;2.50;99.90;;;;;;4963980;28;20043;-61
2022/01/14 11:23:54;;;;;;;44.10;20.50;;;2.50;99.90;;;;;;4960070;28;20075;-61
2022/01/14 11:26:22;;;;;;;41.63;21.35;;;2.60;99.90;;;;;;4958890;28;20023;-61
2022/01/14 11:28:48;;;;;;;37.28;19.17;;;2.60;99.90;;;;;;4972325;28;20147;-61
2022/01/14 11:31:29;;;;;;;43.00;21.30;;;2.60;99.90;;;;;;4965852;28;20390;-61
2022/01/14 11:33:57;;;;;;;40.80;19.52;;;2.60;99.90;;;;;;4965448;28;20033;-61
2022/01/14 11:36:23;;;;;;;36.60;20.95;;;2.60;99.90;;;;;;4968044;28;20034;-61
2022/01/14 11:38:49;;;;;;;46.53;23.13;;;2.60;99.90;;;;;;4972976;28;20654;-60
2022/01/14 11:41:18;;;;;;;42.30;20.98;;;2.60;99.90;;;;;;4974637;28;20050;-61
2022/01/14 11:43:53;;;;;;;42.03;21.77;;;2.60;99.90;;;;;;4968295;28;20031;-61
2022/01/14 11:46:31;;;;;;;44.20;21.42;;;2.60;99.90;;;;;;4966269;28;20071;-58
2022/01/14 11:48:57;;;;;;;34.83;19.83;;;2.60;99.90;;;;;;4974306;28;20166;-58
2022/01/14 11:51:23;;;;;;;46.33;22.10;;;2.70;99.90;;;;;;4960494;28;20030;-58
2022/01/14 11:53:51;;;;;;;43.28;20.58;;;2.70;99.90;;;;;;4964649;28;20089;-61
2022/01/14 11:56:32;;;;;;;41.83;21.55;;;2.70;99.90;;;;;;4963636;28;20037;-61
2022/01/14 11:59:17;;;;;;;38.42;19.80;;;2.60;99.90;;;;;;4957987;28;20043;-60
2022/01/14 12:01:50;;;;;;;42.95;21.83;;;2.60;99.90;;;;;;4969766;28;20447;-58
2022/01/14 12:04:16;;;;;;;45.35;21.73;;;2.60;99.90;;;;;;4973534;28;20035;-58
2022/01/14 12:06:51;;;;;;;40.55;22.38;;;2.50;99.90;;;;;;4962595;28;20039;-61
2022/01/14 12:09:18;;;;;;;37.90;19.73;;;2.50;99.90;;;;;;4964280;28;20031;-58
2022/01/14 12:11:44;;;;;;;39.20;19.80;;;2.40;99.90;;;;;;4964232;28;20018;-58
2022/01/14 12:14:11;;;;;;;31.35;18.13;;;2.40;99.90;;;;;;4968124;28;20034;-58
2022/01/14 12:16:48;;;;;;;36.10;18.42;;;2.30;99.90;;;;;;4974390;28;20038;-58
2022/01/14 12:19:20;;;;;;;38.28;18.92;;;2.20;99.90;;;;;;4970455;28;20073;-58
2022/01/14 12:21:51;;;;;;;40.20;18.27;;;2.20;99.90;;;;;;4964348;28;20037;-61
2022/01/14 12:24:21;;;;;;;38.30;19.42;;;2.30;99.90;;;;;;4958629;28;20018;-61
2022/01/14 12:26:52;;;;;;;32.83;19.45;;;2.40;99.90;;;;;;4962156;28;20530;-61
2022/01/14 12:29:20;;;;;;;33.55;18.95;;;2.40;99.90;;;;;;4960263;28;20045;-61
2022/01/14 12:32:10;;;;;;;34.42;19.65;;;2.40;99.90;;;;;;4960757;28;20090;-58
2022/01/14 12:34:45;;;;;;;37.03;18.83;;;2.30;99.90;;;;;;4972010;28;20030;-58
2022/01/14 12:37:21;;;;;;;33.72;18.48;;;2.20;99.90;;;;;;4967624;28;20439;-58
2022/01/14 12:39:49;;;;;;;37.88;18.23;;;2.20;99.90;;;;;;4968222;28;20034;-58
2022/01/14 12:42:17;;;;;;;35.53;19.58;;;2.20;99.90;;;;;;4969397;28;20438;-59
2022/01/14 12:44:45;;;;;;;39.22;20.13;;;2.10;99.90;;;;;;4969151;28;20070;-59
2022/01/14 12:47:18;;;;;;;43.95;20.17;;;2.00;99.90;;;;;;4972301;28;20027;-58
2022/01/14 12:49:44;;;;;;;45.25;20.60;;;1.90;99.90;;;;;;4966330;28;20407;-58
2022/01/14 12:52:19;;;;;;;43.05;19.90;;;1.90;99.90;;;;;;4974737;28;20032;-61
2022/01/14 12:54:46;;;;;;;33.85;17.65;;;1.90;99.90;;;;;;4965224;28;20034;-59
2022/01/14 12:57:19;;;;;;;41.15;20.25;;;1.90;99.90;;;;;;4966897;28;20095;-58
2022/01/14 12:59:48;;;;;;;48.75;22.27;;;1.90;99.90;;;;;;4969898;28;20545;-59
2022/01/14 13:02:21;;;;;;;41.80;20.38;;;2.00;99.90;;;;;;4964066;28;20114;-58
2022/01/14 13:04:59;;;;;;;39.03;19.40;;;2.10;99.90;;;;;;4961639;28;20034;-58
2022/01/14 13:07:25;;;;;;;43.33;20.05;;;2.20;99.90;;;;;;4971446;28;20041;-58
2022/01/14 13:09:52;;;;;;;30.73;13.75;;;2.30;99.90;;;;;;4976934;28;20048;-58